地図

経路データ

SID SEASON NUMBER BASIN SUBBASIN NAME ISO_TIME NATURE LAT LON WMO_WIND WMO_PRES WMO_AGENCY TRACK_TYPE DIST2LAND LANDFALL IFLAG USA_AGENCY USA_ATCF_ID USA_LAT USA_LON USA_RECORD USA_STATUS USA_WIND USA_PRES USA_SSHS USA_R34_NE USA_R34_SE USA_R34_SW USA_R34_NW USA_R50_NE USA_R50_SE USA_R50_SW USA_R50_NW USA_R64_NE USA_R64_SE USA_R64_SW USA_R64_NW USA_POCI USA_ROCI USA_RMW USA_EYE TOKYO_LAT TOKYO_LON TOKYO_GRADE TOKYO_WIND TOKYO_PRES TOKYO_R50_DIR TOKYO_R50_LONG TOKYO_R50_SHORT TOKYO_R30_DIR TOKYO_R30_LONG TOKYO_R30_SHORT TOKYO_LAND CMA_LAT CMA_LON CMA_CAT CMA_WIND CMA_PRES HKO_LAT HKO_LON HKO_CAT HKO_WIND HKO_PRES NEWDELHI_LAT NEWDELHI_LON NEWDELHI_GRADE NEWDELHI_WIND NEWDELHI_PRES NEWDELHI_CI NEWDELHI_DP NEWDELHI_POCI REUNION_LAT REUNION_LON REUNION_TYPE REUNION_WIND REUNION_PRES REUNION_TNUM REUNION_CI REUNION_RMW REUNION_R34_NE REUNION_R34_SE REUNION_R34_SW REUNION_R34_NW REUNION_R50_NE REUNION_R50_SE REUNION_R50_SW REUNION_R50_NW REUNION_R64_NE REUNION_R64_SE REUNION_R64_SW REUNION_R64_NW BOM_LAT BOM_LON BOM_TYPE BOM_WIND BOM_PRES BOM_TNUM BOM_CI BOM_RMW BOM_R34_NE BOM_R34_SE BOM_R34_SW BOM_R34_NW BOM_R50_NE BOM_R50_SE BOM_R50_SW BOM_R50_NW BOM_R64_NE BOM_R64_SE BOM_R64_SW BOM_R64_NW BOM_ROCI BOM_POCI BOM_EYE BOM_POS_METHOD BOM_PRES_METHOD NADI_LAT NADI_LON NADI_CAT NADI_WIND NADI_PRES WELLINGTON_LAT WELLINGTON_LON WELLINGTON_WIND WELLINGTON_PRES DS824_LAT DS824_LON DS824_STAGE DS824_WIND DS824_PRES TD9636_LAT TD9636_LON TD9636_STAGE TD9636_WIND TD9636_PRES TD9635_LAT TD9635_LON TD9635_WIND TD9635_PRES TD9635_ROCI NEUMANN_LAT NEUMANN_LON NEUMANN_CLASS NEUMANN_WIND NEUMANN_PRES MLC_LAT MLC_LON MLC_CLASS MLC_WIND MLC_PRES USA_GUST BOM_GUST BOM_GUST_PER REUNION_GUST REUNION_GUST_PER USA_SEAHGT USA_SEARAD_NE USA_SEARAD_SE USA_SEARAD_SW USA_SEARAD_NW STORM_SPEED STORM_DIR
1912075N16126 1912 13 WP MM NOT_NAMED 1912-03-15 09:00:00 NR 16.3000 126.300 main 335 335 __________O___ -1 16.3000 126.300 2 33 3
1912075N16126 1912 13 WP MM NOT_NAMED 1912-03-15 12:00:00 NR 17.9585 126.394 main 428 428 __________P___ -1 17.9585 126.394 2 33 4
1912075N16126 1912 13 WP MM NOT_NAMED 1912-03-15 15:00:00 NR 19.5644 126.539 main 461 461 __________P___ -1 19.5644 126.539 2 31 7
1912075N16126 1912 13 WP MM NOT_NAMED 1912-03-15 18:00:00 NR 21.0628 126.790 main 559 559 __________P___ -1 21.0628 126.790 2 29 12
1912075N16126 1912 13 WP MM NOT_NAMED 1912-03-15 21:00:00 NR 22.4000 127.200 main 589 584 __________O___ -1 22.4000 127.200 2 27 21
1912075N16126 1912 13 WP MM NOT_NAMED 1912-03-16 00:00:00 NR 23.5373 127.802 main 609 607 __________P___ -1 23.5373 127.802 2 24 30
1912075N16126 1912 13 WP MM NOT_NAMED 1912-03-16 03:00:00 NR 24.4938 128.540 main 658 650 __________P___ -1 24.4938 128.540 2 23 38
1912075N16126 1912 13 WP MM NOT_NAMED 1912-03-16 06:00:00 NR 25.3032 129.334 main 650 561 __________P___ -1 25.3032 129.334 2 21 43
1912075N16126 1912 13 WP MM NOT_NAMED 1912-03-16 09:00:00 NR 26.0000 130.100 main 561 502 __________O___ -1 26.0000 130.100 2 17 42
1912075N16126 1912 13 WP MM NOT_NAMED 1912-03-16 12:00:00 NR 26.5587 130.601 main 491 447 __________P___ -1 26.5587 130.601 2 14 40
1912075N16126 1912 13 WP MM NOT_NAMED 1912-03-16 15:00:00 NR 27.0369 131.074 main 448 398 __________P___ -1 27.0369 131.074 2 14 43
1912075N16126 1912 13 WP MM NOT_NAMED 1912-03-16 18:00:00 NR 27.5472 131.633 main 400 348 __________P___ -1 27.5472 131.633 2 17 45
1912075N16126 1912 13 WP MM NOT_NAMED 1912-03-16 21:00:00 NR 28.2000 132.400 main 352 329 __________O___ -1 28.2000 132.400 2 23 48
1912075N16126 1912 13 WP MM NOT_NAMED 1912-03-17 00:00:00 NR 29.0949 133.575 main 332 327 __________P___ -1 29.0949 133.575 2 30 49
1912075N16126 1912 13 WP MM NOT_NAMED 1912-03-17 03:00:00 NR 30.1358 134.979 main 346 249 __________P___ -1 30.1358 134.979 2 33 49
1912075N16126 1912 13 WP MM NOT_NAMED 1912-03-17 06:00:00 NR 31.2824 136.495 main 243 214 __________P___ -1 31.2824 136.495 2 35 48
1912075N16126 1912 13 WP MM NOT_NAMED 1912-03-17 09:00:00 NR 32.5000 138.000 main 222 110 __________O___ -1 32.5000 138.000 2 35 44
1912075N16126 1912 13 WP MM NOT_NAMED 1912-03-17 12:00:00 NR 33.8121 139.422 main 104 29 __________P___ -1 33.8121 139.422 2 36 41
1912075N16126 1912 13 WP MM NOT_NAMED 1912-03-17 15:00:00 NR 35.1764 140.806 main 36 28 __________P___ -1 35.1764 140.806 2 35 39
1912075N16126 1912 13 WP MM NOT_NAMED 1912-03-17 18:00:00 NR 36.5020 142.089 main 112 112 __________P___ -1 36.5020 142.089 2 32 37
1912075N16126 1912 13 WP MM NOT_NAMED 1912-03-17 21:00:00 NR 37.7000 143.200 main 162 162 __________O___ -1 37.7000 143.200 2 26 38
1912075N16126 1912 13 WP MM NOT_NAMED 1912-03-18 00:00:00 NR 38.5319 144.097 main 205 199 __________P___ -1 38.5319 144.097 2 20 39
1912075N16126 1912 13 WP MM NOT_NAMED 1912-03-18 03:00:00 NR 39.2585 144.791 main 232 232 __________P___ -1 39.2585 144.791 2 18 33
1912075N16126 1912 13 WP MM NOT_NAMED 1912-03-18 06:00:00 NR 40.0313 145.337 main 274 237 __________P___ -1 40.0313 145.337 2 19 24
1912075N16126 1912 13 WP MM NOT_NAMED 1912-03-18 09:00:00 NR 41.0000 145.800 main 226 124 __________O___ -1 41.0000 145.800 2 23 17
1912075N16126 1912 13 WP MM NOT_NAMED 1912-03-18 12:00:00 NR 42.2744 146.239 main 115 72 __________P___ -1 42.2744 146.239 2 29 13
1912075N16126 1912 13 WP MM NOT_NAMED 1912-03-18 15:00:00 NR 43.8079 146.678 main 64 0 __________P___ -1 43.8079 146.678 2 33 11
1912075N16126 1912 13 WP MM NOT_NAMED 1912-03-18 18:00:00 NR 45.5129 147.128 main 59 59 __________P___ -1 45.5129 147.128 2 36 10
1912075N16126 1912 13 WP MM NOT_NAMED 1912-03-18 21:00:00 NR 47.3000 147.600 main 223 __________O___ -1 47.3000 147.600 2 36 10

デジタル台風データ・検索

IBTrACS Databaseについて

本データベースは、米国NOAAが公開する1842年以降の世界の熱帯低気圧のベストトラックデータアーカイブInternational Best Track Archive for Climate Stewardship (IBTrACS)を、ウェブで閲覧しやすい形式に変換したものです。

最終更新日:2021-11-26